»·PEaware :: N123AN KCRQ-KSNA

N123AN :: KCRQ-KSNA

FLIGHT INFORMATION

Flight Status: Arrived
Operator: Privately registered:
United States
More flights under this callsign
Pilot: Vaclav J. (27943)
Aircraft: CESSNA 182 SKYLANE
(C182)
More flights by this aircraft type
Origin: KCRQ McClellan-Palomar
United States
Destination: KSNA John Wayne-Orange Co
United States
More flights between these airports :: More routes between these airports
Route: +OCN V23 SLI
File this flight plan on PilotEdge
Remarks:
Altitude:
(Current/Filed)
4,000ft
Speed:
(Current/Filed)
140kts
Departed: 10-May-20 11:36 AM
Arrived: 10-May-20 12:26 PM
Distance/Time
Traveled:
44nm/0:50
Distance/Time
To Go:
Arrived

Flight Plot

Page will automatically refresh every two minutes.


Map Options




Map Legend


Flown Route
Filed Route
Departure Airport
Arrival Airport
Navaid (VOR, NDB)
Fix

Horizontal Profiles

Position Reports

Time Latitude Longitude Heading Altitude Ground
Speed
10-May-20 11:11 33.126425 -117.276666 47 337ft 0kts
10-May-20 11:12 33.126425 -117.276666 47 337ft 0kts
10-May-20 11:13 33.126425 -117.276666 47 337ft 0kts
10-May-20 11:14 33.126425 -117.276666 47 337ft 0kts
10-May-20 11:15 33.126425 -117.276666 47 337ft 0kts
10-May-20 11:16 33.126425 -117.276666 47 337ft 0kts
10-May-20 11:17 33.126425 -117.276666 47 337ft 0kts
10-May-20 11:18 33.126425 -117.276666 47 337ft 0kts
10-May-20 11:19 33.126425 -117.276666 47 337ft 0kts
10-May-20 11:20 33.126425 -117.276666 47 337ft 0kts
10-May-20 11:21 33.126425 -117.276666 47 337ft 0kts
10-May-20 11:22 33.126425 -117.276666 47 337ft 0kts
10-May-20 11:23 33.126425 -117.276666 47 337ft 0kts
10-May-20 11:24 33.126425 -117.276666 47 337ft 0kts
10-May-20 11:25 33.126425 -117.276666 47 337ft 0kts
10-May-20 11:26 33.126425 -117.276666 47 337ft 0kts
10-May-20 11:27 33.126425 -117.276666 47 337ft 0kts
10-May-20 11:28 33.126425 -117.276666 47 337ft 0kts
10-May-20 11:29 33.126426 -117.276665 46 337ft 0kts
10-May-20 11:30 33.128294 -117.274782 79 337ft 15kts
10-May-20 11:31 33.128684 -117.272478 38 337ft 0kts
10-May-20 11:32 33.128685 -117.272478 38 337ft 0kts
10-May-20 11:33 33.128685 -117.272478 38 337ft 0kts
10-May-20 11:34 33.128789 -117.272459 339 337ft 7kts
10-May-20 11:35 33.127131 -117.289393 259 538ft 102kts
10-May-20 11:36 33.123031 -117.323003 256 1824ft 84kts
10-May-20 11:37 33.120960 -117.353180 268 2966ft 96kts
10-May-20 11:38 33.120638 -117.383995 267 4188ft 94kts
10-May-20 11:39 33.135705 -117.406513 358 5149ft 121kts
10-May-20 11:40 33.169943 -117.405213 350 5822ft 140kts
10-May-20 11:41 33.210353 -117.410188 350 5943ft 159kts
10-May-20 11:42 33.249563 -117.423719 321 6079ft 145kts
10-May-20 11:43 33.276663 -117.458801 310 6077ft 147kts
10-May-20 11:44 33.305344 -117.493044 311 6081ft 145kts
10-May-20 11:45 33.334251 -117.526767 311 6083ft 145kts
10-May-20 11:46 33.362450 -117.559687 311 6084ft 147kts
10-May-20 11:47 33.391054 -117.593112 311 6085ft 148kts
10-May-20 11:48 33.419575 -117.626474 311 6085ft 148kts
10-May-20 11:49 33.446208 -117.657657 310 6085ft 147kts
10-May-20 11:50 33.472787 -117.688807 311 6083ft 146kts
10-May-20 11:51 33.497966 -117.718338 311 6082ft 144kts
10-May-20 11:52 33.522569 -117.747216 312 6080ft 143kts
10-May-20 11:53 33.545531 -117.774188 312 6079ft 143kts
10-May-20 11:54 33.571937 -117.805230 312 6087ft 142kts
10-May-20 11:55 33.594987 -117.832352 312 6087ft 142kts
10-May-20 11:56 33.622080 -117.864247 312 6087ft 141kts
10-May-20 11:57 33.647376 -117.892994 316 6079ft 141kts
10-May-20 11:58 33.672874 -117.923595 310 6054ft 142kts
10-May-20 11:59 33.701159 -117.953340 314 6040ft 142kts
10-May-20 12:00 33.728693 -117.989491 308 6023ft 142kts
10-May-20 12:01 33.757974 -118.026165 309 6007ft 145kts
10-May-20 12:02 33.791561 -118.043938 32 5886ft 159kts
10-May-20 12:03 33.805412 -117.999824 69 5967ft 154kts
10-May-20 12:04 33.821155 -117.958707 57 5564ft 178kts
10-May-20 12:05 33.841494 -117.913892 65 5030ft 164kts
10-May-20 12:06 33.856597 -117.876500 67 4955ft 127kts
10-May-20 12:07 33.869808 -117.842819 67 5023ft 129kts
10-May-20 12:08 33.882346 -117.806446 68 5116ft 132kts
10-May-20 12:09 33.897805 -117.767868 65 4994ft 143kts
10-May-20 12:10 33.912512 -117.728565 62 4949ft 137kts
10-May-20 12:11 33.945139 -117.699184 21 5022ft 129kts
10-May-20 12:12 33.983071 -117.694339 269 5038ft 112kts
10-May-20 12:13 33.953758 -117.704562 182 4717ft 133kts
10-May-20 12:14 33.916479 -117.713967 206 3990ft 139kts
10-May-20 12:15 33.886452 -117.735153 213 3851ft 123kts
10-May-20 12:16 33.858834 -117.753029 209 3903ft 111kts
10-May-20 12:17 33.829704 -117.771283 208 3304ft 111kts
10-May-20 12:18 33.806797 -117.785544 204 2814ft 80kts
10-May-20 12:20 33.786703 -117.797798 206 2389ft 84kts
10-May-20 12:21 33.766420 -117.810828 208 1898ft 77kts
10-May-20 12:22 33.747258 -117.823142 206 1586ft 74kts
10-May-20 12:23 33.730607 -117.834466 203 1161ft 74kts
10-May-20 12:24 33.710399 -117.846898 205 722ft 85kts
10-May-20 12:25 33.690286 -117.859877 201 285ft 79kts
10-May-20 12:26 33.677942 -117.867934 284 62ft 10kts
10-May-20 12:27 33.678085 -117.868395 299 62ft 0kts
10-May-20 12:28 33.678085 -117.868395 298 62ft 0kts
10-May-20 12:29 33.677235 -117.869327 210 62ft 15kts
10-May-20 12:30 33.672977 -117.872078 241 62ft 13kts
10-May-20 12:31 33.672975 -117.872999 205 62ft 0kts
10-May-20 12:32 33.672975 -117.872999 205 62ft 0kts
10-May-20 12:33 33.672975 -117.872999 205 62ft 0kts

Navigation Log

Ident Type
Flight plan parsing failed, navigation log unavailable